Time;durP1;ratioP1;P1;durP2;ratioP2;P2;SDS_P1;SDS_P2;PMS_P1;PMS_P2;Temp;Humidity;BMP_temperature;BMP_pressure;BME280_temperature;BME280_humidity;BME280_pressure;Samples;Min_cycle;Max_cycle;Signal;HPM_P1;HPM_P2
2021/12/30 00:01:28;;;;;;;99.63;62.27;;;12.60;99.90;;;;;;6070667;23;20150;-85
2021/12/30 00:03:54;;;;;;;96.88;58.55;;;12.60;99.90;;;;;;6096259;23;20175;-85
2021/12/30 00:06:22;;;;;;;97.93;52.47;;;12.70;99.90;;;;;;6097297;23;20618;-85
2021/12/30 00:08:50;;;;;;;103.20;59.80;;;12.60;99.90;;;;;;6096786;23;20816;-85
2021/12/30 00:11:16;;;;;;;114.22;86.63;;;12.60;99.90;;;;;;6097502;23;20158;-85
2021/12/30 00:13:45;;;;;;;101.10;55.37;;;12.60;99.90;;;;;;6097511;23;20164;-85
2021/12/30 00:16:16;;;;;;;98.95;56.85;;;12.60;99.90;;;;;;6095330;23;20711;-85
2021/12/30 00:18:42;;;;;;;94.90;52.40;;;12.50;99.90;;;;;;6097026;23;20668;-85
2021/12/30 00:21:08;;;;;;;93.63;58.60;;;12.50;99.90;;;;;;6096078;23;20159;-85
2021/12/30 00:23:34;;;;;;;103.75;63.95;;;12.40;99.90;;;;;;6097386;23;20201;-85
2021/12/30 00:26:00;;;;;;;104.57;63.70;;;12.40;99.90;;;;;;6096771;23;20497;-85
2021/12/30 00:28:28;;;;;;;97.63;53.50;;;12.40;99.90;;;;;;6096791;23;20407;-85
2021/12/30 00:30:54;;;;;;;91.22;48.90;;;12.40;99.90;;;;;;6097365;23;20143;-85
2021/12/30 00:33:20;;;;;;;97.60;63.03;;;12.40;99.90;;;;;;6097166;23;20159;-85
2021/12/30 00:35:46;;;;;;;88.75;51.45;;;12.40;99.90;;;;;;6096381;23;20150;-85
2021/12/30 00:38:13;;;;;;;92.38;50.83;;;12.40;99.90;;;;;;6095950;23;20485;-85
2021/12/30 00:40:40;;;;;;;92.05;53.13;;;12.40;99.90;;;;;;6070242;23;20157;-85
2021/12/30 00:43:06;;;;;;;94.20;56.92;;;12.40;99.90;;;;;;6096107;23;20145;-85
2021/12/30 00:45:34;;;;;;;90.50;46.97;;;12.40;99.90;;;;;;6095763;23;20477;-85
2021/12/30 00:48:00;;;;;;;92.47;51.17;;;12.40;99.90;;;;;;6094390;23;20162;-85
2021/12/30 00:50:31;;;;;;;92.07;59.35;;;12.40;99.90;;;;;;6112197;23;20193;-86
2021/12/30 00:53:41;;;;;;;96.55;61.70;;;12.40;99.90;;;;;;6097225;23;20146;-86
2021/12/30 00:56:25;;;;;;;107.28;91.28;;;12.30;99.90;;;;;;5993215;23;20682;-86
2021/12/30 01:02:06;;;;;;;101.82;78.55;;;12.20;99.90;;;;;;6102004;23;20616;-86
2021/12/30 01:04:54;;;;;;;104.07;90.43;;;12.20;99.90;;;;;;6071397;23;20171;-85
2021/12/30 01:07:32;;;;;;;99.43;75.93;;;12.20;99.90;;;;;;6070764;23;20463;-85
2021/12/30 01:10:01;;;;;;;102.03;69.10;;;12.20;99.90;;;;;;6092130;23;20586;-85
2021/12/30 01:14:27;;;;;;;104.57;71.95;;;12.20;99.90;;;;;;6072180;23;20152;-85
2021/12/30 01:19:52;;;;;;;91.65;51.80;;;12.10;99.90;;;;;;6092389;23;20611;-86
2021/12/30 01:22:36;;;;;;;98.00;55.45;;;12.10;99.90;;;;;;6070643;23;20238;-86
2021/12/30 01:25:11;;;;;;;104.25;83.78;;;12.10;99.90;;;;;;6071002;23;20630;-85
2021/12/30 01:28:03;;;;;;;;;;;;;;;;;;;;;
2021/12/30 01:30:48;;;;;;;115.40;90.95;;;12.00;99.90;;;;;;6097054;23;20238;-85
2021/12/30 01:33:23;;;;;;;142.25;128.38;;;12.00;99.90;;;;;;6071627;23;20140;-85
2021/12/30 01:36:22;;;;;;;146.25;132.40;;;12.00;99.90;;;;;;6096734;23;20561;-85
2021/12/30 01:39:04;;;;;;;;;;;;;;;;;;;;;
2021/12/30 01:42:03;;;;;;;151.02;137.52;;;12.00;99.90;;;;;;6096381;23;20230;-85
2021/12/30 01:44:48;;;;;;;149.07;135.30;;;12.00;99.90;;;;;;6070629;23;20167;-85
2021/12/30 01:47:24;;;;;;;166.82;153.00;;;11.90;99.90;;;;;;6071130;23;20519;-86
2021/12/30 01:50:04;;;;;;;157.68;143.38;;;12.00;99.90;;;;;;6095259;23;20196;-85
2021/12/30 01:52:48;;;;;;;172.05;157.55;;;12.00;99.90;;;;;;6071731;23;20190;-85
2021/12/30 01:55:24;;;;;;;161.27;147.00;;;12.00;99.90;;;;;;6070536;23;20170;-85
2021/12/30 01:58:12;;;;;;;172.00;157.90;;;12.00;99.90;;;;;;6070798;23;20588;-86
2021/12/30 02:00:51;;;;;;;181.60;167.15;;;12.10;99.90;;;;;;6067435;23;20158;-86
2021/12/30 02:03:35;;;;;;;181.18;166.48;;;12.20;99.90;;;;;;6072614;23;20151;-85
2021/12/30 02:06:04;;;;;;;166.35;152.07;;;12.20;99.90;;;;;;6096857;23;20158;-86
2021/12/30 02:08:59;;;;;;;206.05;189.98;;;12.20;99.90;;;;;;6067606;23;20179;-85
2021/12/30 02:11:37;;;;;;;186.95;172.23;;;12.20;99.90;;;;;;6097036;23;20558;-85
2021/12/30 02:14:14;;;;;;;163.35;149.55;;;12.20;99.90;;;;;;6105402;23;20198;-85
2021/12/30 02:16:52;;;;;;;211.90;195.85;;;12.20;99.90;;;;;;6100253;23;20138;-85
2021/12/30 02:19:37;;;;;;;178.05;163.40;;;12.20;99.90;;;;;;6110130;23;20213;-85
2021/12/30 02:22:24;;;;;;;180.38;165.27;;;12.10;99.90;;;;;;6100440;23;20139;-86
2021/12/30 02:24:59;;;;;;;177.73;163.55;;;12.10;99.90;;;;;;6125208;23;20239;-85
2021/12/30 02:27:28;;;;;;;157.30;143.95;;;12.20;99.90;;;;;;6100930;23;20467;-85
2021/12/30 02:30:12;;;;;;;147.82;134.25;;;12.20;99.90;;;;;;6099654;23;20225;-85
2021/12/30 02:33:04;;;;;;;110.40;99.00;;;12.20;99.90;;;;;;6099856;23;20178;-85
2021/12/30 02:35:53;;;;;;;97.72;80.75;;;12.30;99.90;;;;;;6099581;23;20154;-85
2021/12/30 02:38:27;;;;;;;97.03;77.90;;;12.30;99.90;;;;;;6087709;23;20515;-86
2021/12/30 02:41:22;;;;;;;95.82;67.50;;;12.40;99.90;;;;;;6097133;23;20284;-86
2021/12/30 02:44:28;;;;;;;96.53;74.38;;;12.40;99.90;;;;;;6102056;23;20526;-86
2021/12/30 02:47:37;;;;;;;95.22;64.30;;;12.40;99.90;;;;;;6099278;23;20150;-86
2021/12/30 02:50:16;;;;;;;90.93;58.53;;;12.40;99.90;;;;;;6096495;23;20173;-85
2021/12/30 02:58:55;;;;;;;97.65;72.55;;;12.50;99.90;;;;;;6125073;23;20165;-85
2021/12/30 03:01:46;;;;;;;;;;;;;;;;;;;;;
2021/12/30 03:04:23;;;;;;;99.82;77.80;;;12.50;99.90;;;;;;6124940;23;20234;-85
2021/12/30 03:06:54;;;;;;;108.15;88.80;;;12.60;99.90;;;;;;6100952;23;20138;-85
2021/12/30 03:09:33;;;;;;;103.00;86.47;;;12.50;99.90;;;;;;6125998;23;20163;-86
2021/12/30 03:12:01;;;;;;;101.15;83.18;;;12.50;99.90;;;;;;6125640;23;20131;-86
2021/12/30 03:14:28;;;;;;;141.48;127.82;;;12.50;99.90;;;;;;6124879;23;20182;-86
2021/12/30 03:16:55;;;;;;;109.30;85.80;;;12.50;99.90;;;;;;6101621;23;20158;-86
2021/12/30 03:19:24;;;;;;;123.50;111.15;;;12.60;99.90;;;;;;6101165;23;20196;-85
2021/12/30 03:22:03;;;;;;;115.07;103.43;;;12.50;99.90;;;;;;6101130;23;20229;-86
2021/12/30 03:24:38;;;;;;;144.90;130.77;;;12.60;99.90;;;;;;6101703;23;20174;-86
2021/12/30 03:27:42;;;;;;;126.30;113.93;;;12.70;99.90;;;;;;6128772;23;20456;-86
2021/12/30 03:30:18;;;;;;;128.07;115.82;;;12.60;99.90;;;;;;6101265;23;20261;-86
2021/12/30 03:32:47;;;;;;;132.80;120.13;;;12.60;99.90;;;;;;6128986;23;20176;-86
2021/12/30 03:38:31;;;;;;;122.30;110.45;;;12.60;99.90;;;;;;6159996;23;20155;-85
2021/12/30 03:41:01;;;;;;;132.50;120.15;;;12.70;99.90;;;;;;6103355;23;20576;-86
2021/12/30 03:43:33;;;;;;;128.63;115.75;;;12.60;99.90;;;;;;6103020;23;20162;-85
2021/12/30 03:46:15;;;;;;;127.70;115.32;;;12.60;99.90;;;;;;6101904;23;20154;-86
2021/12/30 03:48:49;;;;;;;119.18;106.78;;;12.60;99.90;;;;;;6104015;23;20174;-86
2021/12/30 03:51:26;;;;;;;122.50;110.65;;;12.60;99.90;;;;;;6128714;23;20441;-86
2021/12/30 03:54:10;;;;;;;116.75;104.90;;;12.50;99.90;;;;;;6104161;23;20163;-86
2021/12/30 04:03:07;;;;;;;120.60;108.85;;;12.50;99.90;;;;;;6127244;23;20150;-85
2021/12/30 04:05:59;;;;;;;123.07;111.20;;;12.40;99.90;;;;;;6014361;23;20464;-86
2021/12/30 04:12:18;;;;;;;116.80;105.38;;;12.40;99.90;;;;;;6013174;23;20160;-85
2021/12/30 04:15:44;;;;;;;124.38;112.60;;;12.40;99.90;;;;;;6010567;23;20221;-85
2021/12/30 04:18:52;;;;;;;120.57;108.65;;;12.40;99.90;;;;;;6009279;23;20151;-86
2021/12/30 04:21:45;;;;;;;126.63;114.18;;;12.40;99.90;;;;;;6004360;23;20167;-87
2021/12/30 04:24:18;;;;;;;108.88;97.50;;;12.40;99.90;;;;;;6014371;23;20199;-87
2021/12/30 04:27:05;;;;;;;118.03;106.18;;;12.40;99.90;;;;;;6113272;23;20177;-86
2021/12/30 04:36:38;;;;;;;101.25;90.28;;;12.50;99.90;;;;;;6185272;23;20641;-85
2021/12/30 04:39:14;;;;;;;107.38;95.75;;;12.50;99.90;;;;;;6185479;23;20145;-85
2021/12/30 04:41:45;;;;;;;125.88;113.63;;;12.50;99.90;;;;;;6124682;23;20465;-85
2021/12/30 04:44:33;;;;;;;124.50;112.60;;;12.50;99.90;;;;;;6100089;23;20178;-85
2021/12/30 04:47:09;;;;;;;108.70;97.43;;;12.40;99.90;;;;;;6100955;23;20139;-85
2021/12/30 04:49:44;;;;;;;112.75;101.20;;;12.50;99.90;;;;;;6101270;23;20204;-85
2021/12/30 04:52:21;;;;;;;97.35;80.95;;;12.50;99.90;;;;;;6125547;23;20143;-85
2021/12/30 04:54:59;;;;;;;104.20;93.10;;;12.60;99.90;;;;;;6100487;23;20253;-85
2021/12/30 04:57:39;;;;;;;101.82;90.82;;;12.60;99.90;;;;;;6104731;23;20151;-84
2021/12/30 05:00:41;;;;;;;95.60;80.70;;;12.70;99.90;;;;;;6101571;23;20264;-84
2021/12/30 05:03:11;;;;;;;101.43;86.95;;;12.70;99.90;;;;;;6093710;23;20185;-84
2021/12/30 05:05:55;;;;;;;92.30;74.35;;;12.70;99.90;;;;;;6129187;23;20150;-85
2021/12/30 05:08:26;;;;;;;90.05;54.75;;;12.80;99.90;;;;;;6103135;23;20512;-85
2021/12/30 05:11:11;;;;;;;88.07;62.92;;;12.80;99.90;;;;;;6102997;23;20143;-85
2021/12/30 05:13:43;;;;;;;88.88;65.07;;;12.90;99.90;;;;;;6102208;23;20170;-85
2021/12/30 05:16:09;;;;;;;83.85;50.58;;;12.90;99.90;;;;;;6125887;23;20135;-85
2021/12/30 05:18:55;;;;;;;;;;;;;;;;;;;;;
2021/12/30 05:21:46;;;;;;;85.72;58.00;;;13.10;99.90;;;;;;6127837;23;20201;-85
2021/12/30 05:24:15;;;;;;;87.15;58.03;;;13.10;99.90;;;;;;6102363;23;20190;-85
2021/12/30 05:26:45;;;;;;;91.53;65.93;;;13.20;99.90;;;;;;6101928;23;20151;-85
2021/12/30 05:29:18;;;;;;;88.35;59.22;;;13.30;99.90;;;;;;6101002;23;20197;-85
2021/12/30 05:31:46;;;;;;;93.25;67.82;;;13.30;99.90;;;;;;6102505;23;20584;-85
2021/12/30 05:34:16;;;;;;;87.18;60.05;;;13.30;99.90;;;;;;6101733;23;20249;-85
2021/12/30 05:36:59;;;;;;;89.80;67.80;;;13.40;99.90;;;;;;6128170;23;20143;-85
2021/12/30 05:39:29;;;;;;;95.00;71.95;;;13.40;99.90;;;;;;6102687;23;20201;-85
2021/12/30 05:41:56;;;;;;;102.57;87.95;;;13.40;99.90;;;;;;6102572;23;20568;-85
2021/12/30 05:44:30;;;;;;;102.95;90.95;;;13.40;99.90;;;;;;6126547;23;20166;-85
2021/12/30 05:46:57;;;;;;;94.80;79.65;;;13.40;99.90;;;;;;6101696;23;20465;-85
2021/12/30 05:49:23;;;;;;;92.38;73.70;;;13.50;99.90;;;;;;6101451;23;20175;-85
2021/12/30 05:51:51;;;;;;;91.77;73.53;;;13.50;99.90;;;;;;6127060;23;20153;-85
2021/12/30 05:54:20;;;;;;;91.00;70.78;;;13.40;99.90;;;;;;6100405;23;20174;-85
2021/12/30 05:56:55;;;;;;;88.97;65.40;;;13.50;99.90;;;;;;6127308;23;20146;-85
2021/12/30 05:59:29;;;;;;;87.57;61.83;;;13.50;99.90;;;;;;6101022;23;20500;-85
2021/12/30 06:02:04;;;;;;;88.75;64.13;;;13.60;99.90;;;;;;6101322;23;20252;-85
2021/12/30 06:04:33;;;;;;;89.05;65.65;;;13.60;99.90;;;;;;6101249;23;20174;-85
2021/12/30 06:07:02;;;;;;;90.45;68.93;;;13.60;99.90;;;;;;6101180;23;20588;-85
2021/12/30 06:09:41;;;;;;;90.30;68.60;;;13.70;99.90;;;;;;6102346;23;20173;-85
2021/12/30 06:12:21;;;;;;;91.78;70.82;;;13.70;99.90;;;;;;6100144;23;20153;-85
2021/12/30 06:14:50;;;;;;;88.90;62.83;;;13.70;99.90;;;;;;6101427;23;20167;-85
2021/12/30 06:17:37;;;;;;;94.45;78.72;;;13.70;99.90;;;;;;6100800;23;20147;-85
2021/12/30 06:20:22;;;;;;;90.00;66.07;;;13.70;99.90;;;;;;6124672;23;20173;-85
2021/12/30 06:22:49;;;;;;;103.73;90.63;;;13.80;99.90;;;;;;6101424;23;20150;-84
2021/12/30 06:25:17;;;;;;;87.97;60.07;;;13.80;99.90;;;;;;6126878;23;20898;-85
2021/12/30 06:27:43;;;;;;;89.95;62.67;;;13.80;99.90;;;;;;6102893;23;20390;-85
2021/12/30 06:30:18;;;;;;;89.82;63.58;;;13.80;99.90;;;;;;6126618;23;20163;-85
2021/12/30 06:32:48;;;;;;;87.78;60.15;;;13.80;99.90;;;;;;6099301;23;20168;-85
2021/12/30 06:35:18;;;;;;;90.45;67.03;;;13.80;99.90;;;;;;6126692;23;20198;-85
2021/12/30 06:37:50;;;;;;;94.30;77.53;;;13.90;99.90;;;;;;6101573;23;20147;-84
2021/12/30 06:40:19;;;;;;;92.18;70.38;;;13.90;99.90;;;;;;6100618;23;20233;-85
2021/12/30 06:43:03;;;;;;;91.50;69.93;;;14.00;99.90;;;;;;6100372;23;20154;-85
2021/12/30 06:45:35;;;;;;;96.43;69.57;;;14.00;99.90;;;;;;6100576;23;20374;-85
2021/12/30 06:48:05;;;;;;;92.23;71.67;;;14.00;99.90;;;;;;6101496;23;20157;-85
2021/12/30 06:50:32;;;;;;;89.63;64.75;;;14.00;99.90;;;;;;6096292;22;20450;-83
2021/12/30 06:52:58;;;;;;;93.55;75.57;;;14.00;99.90;;;;;;6128467;23;20151;-84
2021/12/30 06:55:24;;;;;;;91.80;66.47;;;14.00;99.90;;;;;;6073388;23;20152;-83
2021/12/30 06:57:50;;;;;;;93.90;77.50;;;14.00;99.90;;;;;;6098432;23;20363;-83
2021/12/30 07:00:15;;;;;;;88.90;62.27;;;14.10;99.90;;;;;;6099726;23;20199;-84
2021/12/30 07:02:45;;;;;;;91.77;70.73;;;14.10;99.90;;;;;;6072562;23;20159;-83
2021/12/30 07:05:12;;;;;;;90.43;68.43;;;14.10;99.90;;;;;;6073834;23;20633;-83
2021/12/30 07:07:37;;;;;;;90.00;65.23;;;14.10;99.90;;;;;;6099872;23;20151;-83
2021/12/30 07:10:05;;;;;;;87.67;57.97;;;14.10;99.90;;;;;;6072638;23;20419;-83
2021/12/30 07:12:31;;;;;;;89.43;65.47;;;14.10;99.90;;;;;;6098759;23;20220;-83
2021/12/30 07:14:57;;;;;;;87.07;58.93;;;14.10;99.90;;;;;;6099114;23;20166;-84
2021/12/30 07:17:26;;;;;;;86.87;58.27;;;14.10;99.90;;;;;;6099271;23;20378;-83
2021/12/30 07:19:52;;;;;;;87.70;60.45;;;14.10;99.90;;;;;;6073959;23;20383;-84
2021/12/30 07:22:17;;;;;;;86.07;56.03;;;14.10;99.90;;;;;;6073190;23;20152;-84
2021/12/30 07:24:43;;;;;;;86.30;55.77;;;14.10;99.90;;;;;;6099677;23;20479;-84
2021/12/30 07:27:09;;;;;;;86.13;56.93;;;14.10;99.90;;;;;;6099923;23;20147;-84
2021/12/30 07:29:34;;;;;;;87.23;59.60;;;14.10;99.90;;;;;;6099003;23;20167;-84
2021/12/30 07:32:00;;;;;;;86.77;57.57;;;14.10;99.90;;;;;;6099059;23;20221;-84
2021/12/30 07:34:25;;;;;;;87.63;58.47;;;14.10;99.90;;;;;;6098403;23;20163;-84
2021/12/30 07:36:51;;;;;;;91.53;71.50;;;14.10;99.90;;;;;;6099224;23;20566;-84
2021/12/30 07:39:17;;;;;;;89.30;64.53;;;14.10;99.90;;;;;;6072767;23;20597;-83
2021/12/30 07:41:42;;;;;;;92.60;71.50;;;14.20;99.90;;;;;;6099529;23;20143;-84
2021/12/30 07:44:09;;;;;;;88.17;61.13;;;14.10;99.90;;;;;;6097843;23;20163;-82
2021/12/30 07:46:35;;;;;;;86.30;58.17;;;14.20;99.90;;;;;;6098359;23;20148;-83
2021/12/30 07:49:00;;;;;;;86.23;55.33;;;14.20;99.90;;;;;;6072274;23;20430;-82
2021/12/30 07:51:28;;;;;;;86.90;57.60;;;14.20;99.90;;;;;;6098664;23;20235;-82
2021/12/30 07:53:53;;;;;;;87.83;60.90;;;14.20;99.90;;;;;;6099859;23;20214;-85
2021/12/30 07:56:19;;;;;;;90.93;67.93;;;14.20;99.90;;;;;;6098983;23;20388;-84
2021/12/30 07:58:45;;;;;;;88.10;58.10;;;14.20;99.90;;;;;;6073865;23;20151;-85
2021/12/30 08:01:11;;;;;;;91.37;69.90;;;14.20;99.90;;;;;;6099955;23;20154;-84
2021/12/30 08:03:36;;;;;;;89.23;61.97;;;14.20;99.90;;;;;;6073839;23;20790;-84
2021/12/30 08:06:02;;;;;;;86.97;55.83;;;14.30;99.90;;;;;;6099736;23;20278;-84
2021/12/30 08:08:28;;;;;;;90.80;64.13;;;14.30;99.90;;;;;;6074118;23;20178;-85
2021/12/30 08:10:54;;;;;;;86.70;56.03;;;14.30;99.90;;;;;;6099569;23;20143;-85
2021/12/30 08:13:19;;;;;;;87.27;56.80;;;14.30;99.90;;;;;;6073868;23;20171;-84
2021/12/30 08:15:46;;;;;;;86.63;54.70;;;14.30;99.90;;;;;;6099706;23;20693;-84
2021/12/30 08:18:13;;;;;;;90.20;63.55;;;14.30;99.90;;;;;;6074211;23;20390;-84
2021/12/30 08:20:38;;;;;;;90.07;64.68;;;14.40;99.90;;;;;;6073636;23;20147;-84
2021/12/30 08:23:04;;;;;;;91.97;65.63;;;14.40;99.90;;;;;;6074082;23;20261;-84
2021/12/30 08:25:30;;;;;;;95.47;73.93;;;14.40;99.90;;;;;;6099905;23;20136;-85
2021/12/30 08:27:56;;;;;;;96.27;79.67;;;14.40;99.90;;;;;;6099742;23;20373;-85
2021/12/30 08:30:23;;;;;;;111.20;99.30;;;14.40;99.90;;;;;;6100542;23;20942;-84
2021/12/30 08:32:50;;;;;;;100.17;89.20;;;14.40;99.90;;;;;;6073245;23;20151;-84
2021/12/30 08:35:16;;;;;;;99.22;87.68;;;14.50;99.90;;;;;;6098872;23;20392;-83
2021/12/30 08:37:42;;;;;;;107.93;96.63;;;14.40;99.90;;;;;;6097650;23;20148;-83
2021/12/30 08:40:10;;;;;;;97.83;85.87;;;14.50;99.90;;;;;;6097250;23;20438;-83
2021/12/30 08:42:37;;;;;;;97.68;84.15;;;14.40;99.90;;;;;;6072264;23;20383;-84
2021/12/30 08:45:05;;;;;;;110.13;98.77;;;14.50;99.90;;;;;;6097483;23;20163;-84
2021/12/30 08:47:31;;;;;;;106.97;95.73;;;14.40;99.90;;;;;;6073048;23;20769;-84
2021/12/30 08:49:57;;;;;;;106.27;95.07;;;14.50;99.90;;;;;;6097228;23;20422;-84
2021/12/30 08:52:28;;;;;;;105.57;94.37;;;14.50;99.90;;;;;;6097464;23;20418;-85
2021/12/30 08:54:56;;;;;;;96.83;79.43;;;14.40;99.90;;;;;;6072521;23;20426;-84
2021/12/30 08:57:24;;;;;;;101.17;90.07;;;14.50;99.90;;;;;;6072037;23;20367;-83
2021/12/30 08:59:51;;;;;;;98.30;87.47;;;14.50;99.90;;;;;;6097316;23;20820;-84
2021/12/30 09:02:16;;;;;;;112.20;100.83;;;14.50;99.90;;;;;;6099298;23;20446;-84
2021/12/30 09:04:45;;;;;;;112.90;101.37;;;14.50;99.90;;;;;;6098454;23;20387;-84
2021/12/30 09:07:12;;;;;;;101.23;90.13;;;14.50;99.90;;;;;;6098867;23;20152;-85
2021/12/30 09:09:39;;;;;;;113.13;101.60;;;14.50;99.90;;;;;;6072958;23;20915;-84
2021/12/30 09:12:06;;;;;;;105.10;93.88;;;14.50;99.90;;;;;;6074825;23;20397;-85
2021/12/30 09:14:31;;;;;;;109.80;98.43;;;14.60;99.90;;;;;;6101527;23;20207;-85
2021/12/30 09:16:57;;;;;;;116.67;104.90;;;14.60;99.90;;;;;;6100227;23;20364;-85
2021/12/30 09:19:23;;;;;;;112.77;101.33;;;14.60;99.90;;;;;;6074518;23;20156;-85
2021/12/30 09:21:48;;;;;;;109.47;98.20;;;14.60;99.90;;;;;;6100216;23;20175;-85
2021/12/30 09:24:14;;;;;;;133.03;120.90;;;14.60;99.90;;;;;;6099950;23;20175;-85
2021/12/30 09:26:40;;;;;;;122.07;110.30;;;14.60;99.90;;;;;;6100148;23;20147;-85
2021/12/30 09:29:10;;;;;;;126.93;115.00;;;14.70;99.90;;;;;;6074644;23;20438;-85
2021/12/30 09:31:48;;;;;;;134.73;122.43;;;14.70;99.90;;;;;;6075475;23;20171;-85
2021/12/30 09:34:15;;;;;;;114.40;103.00;;;14.70;99.90;;;;;;6076173;23;20395;-85
2021/12/30 09:36:41;;;;;;;125.20;113.30;;;14.70;99.90;;;;;;6101732;23;20891;-85
2021/12/30 09:39:11;;;;;;;127.10;115.13;;;14.70;99.90;;;;;;6076433;23;20387;-85
2021/12/30 09:41:39;;;;;;;112.17;100.77;;;14.70;99.90;;;;;;6076132;23;20462;-85
2021/12/30 09:44:13;;;;;;;121.03;109.27;;;14.70;99.90;;;;;;6102005;23;20517;-85
2021/12/30 09:46:42;;;;;;;121.37;109.37;;;14.80;99.90;;;;;;6101340;23;20359;-85
2021/12/30 09:49:09;;;;;;;135.30;122.97;;;14.80;99.90;;;;;;6101490;23;20411;-85
2021/12/30 09:51:35;;;;;;;155.53;142.23;;;14.90;99.90;;;;;;6101908;23;20406;-85
2021/12/30 09:54:01;;;;;;;140.27;127.23;;;14.90;99.90;;;;;;6101470;23;20384;-85
2021/12/30 09:56:30;;;;;;;130.30;118.20;;;14.90;99.90;;;;;;6101199;23;20446;-85
2021/12/30 09:58:56;;;;;;;112.03;100.63;;;15.00;99.90;;;;;;6075652;23;20379;-85
2021/12/30 10:01:22;;;;;;;141.60;129.10;;;15.00;99.90;;;;;;6102062;23;20398;-85
2021/12/30 10:03:49;;;;;;;162.23;148.73;;;15.10;99.90;;;;;;6075723;23;20224;-85
2021/12/30 10:06:17;;;;;;;187.83;172.97;;;15.20;99.90;;;;;;6102066;23;20376;-85
2021/12/30 10:08:57;;;;;;;163.50;150.03;;;15.20;99.90;;;;;;6076817;23;20446;-85
2021/12/30 10:11:23;;;;;;;199.87;184.80;;;15.20;99.90;;;;;;6075089;23;20386;-84
2021/12/30 10:14:00;;;;;;;192.00;177.40;;;15.30;99.90;;;;;;6074798;23;20410;-84
2021/12/30 10:16:26;;;;;;;211.27;196.20;;;15.30;99.90;;;;;;6075495;23;20386;-85
2021/12/30 10:19:02;;;;;;;238.20;221.47;;;15.30;99.90;;;;;;6101625;23;20382;-85
2021/12/30 10:21:36;;;;;;;216.50;201.33;;;15.30;99.90;;;;;;6075139;23;20724;-84
2021/12/30 10:24:05;;;;;;;231.43;215.33;;;15.30;99.90;;;;;;6075058;23;20426;-84
2021/12/30 10:26:51;;;;;;;227.00;211.63;;;15.30;99.90;;;;;;6076152;23;20418;-84
2021/12/30 10:29:17;;;;;;;225.67;210.27;;;15.40;99.90;;;;;;6076423;23;20411;-85
2021/12/30 10:31:43;;;;;;;196.97;182.33;;;15.30;99.90;;;;;;6077060;23;20413;-85
2021/12/30 10:34:10;;;;;;;203.63;188.57;;;15.30;99.90;;;;;;6101114;23;20395;-84
2021/12/30 10:36:43;;;;;;;191.07;176.77;;;15.30;99.90;;;;;;6075334;23;20461;-84
2021/12/30 10:39:22;;;;;;;196.63;182.20;;;15.30;99.90;;;;;;6075367;23;20371;-84
2021/12/30 10:41:53;;;;;;;215.50;200.57;;;15.30;99.90;;;;;;6075169;23;20860;-84
2021/12/30 10:44:19;;;;;;;217.13;201.47;;;15.40;99.90;;;;;;6100934;23;20403;-84
2021/12/30 10:46:46;;;;;;;212.57;197.30;;;15.30;99.90;;;;;;6100178;23;20872;-83
2021/12/30 10:49:27;;;;;;;218.47;202.87;;;15.30;99.90;;;;;;6074181;23;20491;-84
2021/12/30 10:51:57;;;;;;;200.93;186.57;;;15.40;99.90;;;;;;6074590;23;20372;-84
2021/12/30 10:54:32;;;;;;;198.93;184.47;;;15.40;99.90;;;;;;6101096;23;20415;-84
2021/12/30 10:57:07;;;;;;;223.77;207.97;;;15.50;99.90;;;;;;6074819;23;20371;-84
2021/12/30 10:59:35;;;;;;;218.40;202.73;;;15.50;99.90;;;;;;6074773;23;20390;-84
2021/12/30 11:02:20;;;;;;;213.30;197.60;;;15.60;99.90;;;;;;6100141;23;20363;-84
2021/12/30 11:04:50;;;;;;;167.30;153.70;;;15.70;99.90;;;;;;6101177;23;20406;-84
2021/12/30 11:07:22;;;;;;;146.30;133.03;;;15.70;99.90;;;;;;6074762;23;20908;-84
2021/12/30 11:09:54;;;;;;;121.43;109.00;;;15.70;99.90;;;;;;6100495;23;20427;-84
2021/12/30 11:12:24;;;;;;;96.53;77.27;;;15.70;99.90;;;;;;6101247;23;20367;-84
2021/12/30 11:14:50;;;;;;;92.23;68.33;;;15.70;99.90;;;;;;6100398;23;20395;-83
2021/12/30 11:17:21;;;;;;;92.90;68.03;;;15.70;99.90;;;;;;6100545;23;20422;-84
2021/12/30 11:19:54;;;;;;;87.70;57.20;;;15.70;99.90;;;;;;6075035;23;20178;-84
2021/12/30 11:22:28;;;;;;;86.13;56.90;;;15.70;99.90;;;;;;6100410;23;20900;-84
2021/12/30 11:24:56;;;;;;;86.77;53.70;;;15.70;99.90;;;;;;6100456;23;20397;-84
2021/12/30 11:27:24;;;;;;;89.43;62.60;;;15.70;99.90;;;;;;6100532;23;20367;-84
2021/12/30 11:29:52;;;;;;;87.60;59.27;;;15.70;99.90;;;;;;6074855;23;20419;-84
2021/12/30 11:32:28;;;;;;;91.87;66.40;;;15.70;99.90;;;;;;6100393;23;20780;-84
2021/12/30 11:34:55;;;;;;;108.20;96.87;;;15.70;99.90;;;;;;6074921;23;20395;-84
2021/12/30 11:37:21;;;;;;;109.40;97.87;;;15.80;99.90;;;;;;6075216;23;20411;-85
2021/12/30 11:39:52;;;;;;;119.60;107.80;;;15.80;99.90;;;;;;6074854;23;20372;-84
2021/12/30 11:42:26;;;;;;;124.53;112.50;;;15.80;99.90;;;;;;6075064;23;20379;-84
2021/12/30 11:44:53;;;;;;;130.53;118.13;;;15.80;99.90;;;;;;6100020;23;20426;-84
2021/12/30 11:47:34;;;;;;;144.97;131.87;;;15.80;99.90;;;;;;6075267;23;20387;-84
2021/12/30 11:50:20;;;;;;;126.40;114.10;;;15.80;99.90;;;;;;6099866;23;20423;-83
2021/12/30 11:52:49;;;;;;;126.47;114.07;;;15.90;99.90;;;;;;6074143;23;20382;-84
2021/12/30 11:55:46;;;;;;;121.87;109.40;;;15.90;99.90;;;;;;6073960;23;20470;-85
2021/12/30 11:58:42;;;;;;;117.40;105.50;;;15.90;99.90;;;;;;6075660;23;20425;-84
2021/12/30 12:01:10;;;;;;;99.07;84.83;;;16.00;99.90;;;;;;6074805;23;20383;-84
2021/12/30 12:03:57;;;;;;;107.90;96.20;;;16.00;99.90;;;;;;6100695;23;20394;-84
2021/12/30 12:06:28;;;;;;;99.53;84.07;;;16.10;99.90;;;;;;6074102;23;20372;-84
2021/12/30 12:09:15;;;;;;;100.97;86.70;;;16.10;99.90;;;;;;6075609;23;20426;-84
2021/12/30 12:11:43;;;;;;;97.63;80.67;;;16.20;99.90;;;;;;6101254;23;20338;-84
2021/12/30 12:14:15;;;;;;;90.40;59.10;;;16.20;99.90;;;;;;6100781;23;20475;-84
2021/12/30 12:16:50;;;;;;;94.30;59.90;;;16.20;99.90;;;;;;6101371;23;20348;-84
2021/12/30 12:19:33;;;;;;;89.83;58.47;;;16.20;99.90;;;;;;6100914;23;20359;-84
2021/12/30 12:21:59;;;;;;;96.30;74.37;;;16.10;99.90;;;;;;6075224;23;20403;-85
2021/12/30 12:24:34;;;;;;;93.10;70.30;;;16.20;99.90;;;;;;6075346;23;20396;-84
2021/12/30 12:27:26;;;;;;;86.20;50.27;;;16.10;99.90;;;;;;6074463;23;20410;-84
2021/12/30 12:29:56;;;;;;;89.07;54.40;;;16.10;99.90;;;;;;6100349;23;20415;-84
2021/12/30 12:32:32;;;;;;;86.40;47.57;;;16.10;99.90;;;;;;6074594;23;20895;-85
2021/12/30 12:35:23;;;;;;;82.20;40.23;;;16.10;99.90;;;;;;6075206;23;20893;-85
2021/12/30 12:37:52;;;;;;;80.77;38.07;;;16.10;99.90;;;;;;6075896;23;20709;-85
2021/12/30 12:40:26;;;;;;;80.47;38.90;;;16.10;99.90;;;;;;6075036;23;20441;-84
2021/12/30 12:42:52;;;;;;;77.77;26.03;;;16.10;99.90;;;;;;6074155;23;20385;-85
2021/12/30 12:45:22;;;;;;;75.97;27.47;;;16.10;99.90;;;;;;6100808;23;20395;-84
2021/12/30 12:48:23;;;;;;;74.20;21.70;;;16.10;99.90;;;;;;6074727;23;20147;-85
2021/12/30 12:51:06;;;;;;;75.37;19.10;;;16.10;99.90;;;;;;6085753;22;20484;-88
2021/12/30 12:54:01;;;;;;;74.10;22.20;;;16.10;99.90;;;;;;6096922;23;20855;-88
2021/12/30 13:00:39;;;;;;;75.03;17.20;;;16.10;99.90;;;;;;6120808;23;20397;-88
2021/12/30 13:03:25;;;;;;;73.97;22.10;;;16.10;99.90;;;;;;6120591;23;20362;-88
2021/12/30 13:06:14;;;;;;;88.83;46.07;;;16.20;99.90;;;;;;6122777;23;20347;-87
2021/12/30 13:08:44;;;;;;;72.47;19.10;;;16.10;99.90;;;;;;6097793;23;20509;-87
2021/12/30 13:11:38;;;;;;;72.50;18.87;;;16.00;99.90;;;;;;6123053;23;20382;-87
2021/12/30 13:14:46;;;;;;;75.43;27.57;;;16.00;99.90;;;;;;6097569;23;20864;-87
2021/12/30 13:17:18;;;;;;;77.87;23.27;;;16.00;99.90;;;;;;6010845;23;20464;-87
2021/12/30 13:19:55;;;;;;;74.47;23.23;;;15.90;99.90;;;;;;6087669;23;20385;-88
2021/12/30 13:22:25;;;;;;;77.97;29.90;;;15.90;99.90;;;;;;6097771;23;20470;-88
2021/12/30 13:24:56;;;;;;;79.27;35.27;;;15.90;99.90;;;;;;6123590;23;20486;-87
2021/12/30 13:27:57;;;;;;;83.87;46.17;;;15.80;99.90;;;;;;6098418;23;20419;-88
2021/12/30 13:30:32;;;;;;;82.93;45.17;;;15.80;99.90;;;;;;6010414;23;20424;-88
2021/12/30 13:33:00;;;;;;;102.80;79.27;;;15.80;99.90;;;;;;6124080;23;20390;-88
2021/12/30 13:35:29;;;;;;;115.30;102.50;;;15.70;99.90;;;;;;6097095;23;20432;-87